sensor_id;sensor_type;location;lat;lon;timestamp;pressure;altitude;pressure_sealevel;temperature;humidity
54407;BME280;40313;50.308;30.374;2024-02-21T00:02:18;99810.63;;;12.53;90.64
54407;BME280;40313;50.308;30.374;2024-02-21T00:04:44;99803.50;;;12.55;90.67
54407;BME280;40313;50.308;30.374;2024-02-21T00:07:12;99791.88;;;12.74;89.71
54407;BME280;40313;50.308;30.374;2024-02-21T00:09:39;99800.31;;;12.50;89.69
54407;BME280;40313;50.308;30.374;2024-02-21T00:12:06;99795.16;;;12.63;90.04
54407;BME280;40313;50.308;30.374;2024-02-21T00:14:33;99793.94;;;12.54;90.01
54407;BME280;40313;50.308;30.374;2024-02-21T00:16:59;99791.72;;;12.48;90.27
54407;BME280;40313;50.308;30.374;2024-02-21T00:19:26;99792.03;;;12.43;90.14
54407;BME280;40313;50.308;30.374;2024-02-21T00:21:52;99796.38;;;12.57;89.03
54407;BME280;40313;50.308;30.374;2024-02-21T00:24:20;99783.44;;;12.83;88.52
54407;BME280;40313;50.308;30.374;2024-02-21T00:26:46;99784.41;;;12.68;88.68
54407;BME280;40313;50.308;30.374;2024-02-21T00:29:13;99795.09;;;12.65;89.79
54407;BME280;40313;50.308;30.374;2024-02-21T00:31:39;99790.19;;;12.73;89.69
54407;BME280;40313;50.308;30.374;2024-02-21T00:34:06;99786.50;;;13.17;87.90
54407;BME280;40313;50.308;30.374;2024-02-21T00:36:33;99775.84;;;12.93;88.49
54407;BME280;40313;50.308;30.374;2024-02-21T00:38:59;99779.25;;;13.08;87.86
54407;BME280;40313;50.308;30.374;2024-02-21T00:41:27;99773.44;;;12.75;88.66
54407;BME280;40313;50.308;30.374;2024-02-21T00:43:54;99769.91;;;13.04;88.73
54407;BME280;40313;50.308;30.374;2024-02-21T00:46:20;99768.88;;;12.79;89.36
54407;BME280;40313;50.308;30.374;2024-02-21T00:48:47;99771.50;;;12.79;89.17
54407;BME280;40313;50.308;30.374;2024-02-21T00:51:13;99767.59;;;12.72;89.40
54407;BME280;40313;50.308;30.374;2024-02-21T00:53:40;99759.97;;;12.82;89.72
54407;BME280;40313;50.308;30.374;2024-02-21T00:56:06;99762.91;;;12.62;89.10
54407;BME280;40313;50.308;30.374;2024-02-21T00:58:34;99759.53;;;12.75;90.57
54407;BME280;40313;50.308;30.374;2024-02-21T01:01:01;99762.91;;;12.62;90.23
54407;BME280;40313;50.308;30.374;2024-02-21T01:03:28;99759.94;;;12.54;90.61
54407;BME280;40313;50.308;30.374;2024-02-21T01:05:54;99755.97;;;12.76;90.80
54407;BME280;40313;50.308;30.374;2024-02-21T01:08:21;99749.84;;;12.90;90.54
54407;BME280;40313;50.308;30.374;2024-02-21T01:10:47;99747.13;;;12.91;90.75
54407;BME280;40313;50.308;30.374;2024-02-21T01:13:14;99746.44;;;12.75;90.43
54407;BME280;40313;50.308;30.374;2024-02-21T01:15:42;99756.75;;;12.64;91.14
54407;BME280;40313;50.308;30.374;2024-02-21T01:18:08;99748.50;;;12.70;90.93
54407;BME280;40313;50.308;30.374;2024-02-21T01:20:35;99744.03;;;12.72;91.30
54407;BME280;40313;50.308;30.374;2024-02-21T01:23:01;99740.91;;;12.79;90.88
54407;BME280;40313;50.308;30.374;2024-02-21T01:25:28;99742.50;;;12.82;91.83
54407;BME280;40313;50.308;30.374;2024-02-21T01:27:54;99742.97;;;13.02;89.24
54407;BME280;40313;50.308;30.374;2024-02-21T01:30:21;99737.88;;;12.86;90.28
54407;BME280;40313;50.308;30.374;2024-02-21T01:32:48;99743.94;;;13.01;90.05
54407;BME280;40313;50.308;30.374;2024-02-21T01:35:15;99737.22;;;12.69;90.42
54407;BME280;40313;50.308;30.374;2024-02-21T01:37:41;99743.34;;;12.83;90.24
54407;BME280;40313;50.308;30.374;2024-02-21T01:40:09;99740.41;;;12.87;90.54
54407;BME280;40313;50.308;30.374;2024-02-21T01:42:38;99734.66;;;12.82;91.10
54407;BME280;40313;50.308;30.374;2024-02-21T01:45:05;99732.06;;;12.95;90.48
54407;BME280;40313;50.308;30.374;2024-02-21T01:47:32;99731.31;;;12.93;90.11
54407;BME280;40313;50.308;30.374;2024-02-21T01:50:00;99733.13;;;12.51;90.84
54407;BME280;40313;50.308;30.374;2024-02-21T01:52:28;99732.50;;;12.74;91.70
54407;BME280;40313;50.308;30.374;2024-02-21T01:54:54;99734.44;;;12.85;91.59
54407;BME280;40313;50.308;30.374;2024-02-21T01:57:22;99729.16;;;13.00;91.53
54407;BME280;40313;50.308;30.374;2024-02-21T01:59:49;99732.75;;;13.11;90.60
54407;BME280;40313;50.308;30.374;2024-02-21T02:02:16;99741.16;;;12.62;91.98
54407;BME280;40313;50.308;30.374;2024-02-21T02:04:44;99738.19;;;12.81;92.22
54407;BME280;40313;50.308;30.374;2024-02-21T02:07:12;99743.63;;;12.78;91.75
54407;BME280;40313;50.308;30.374;2024-02-21T02:09:39;99740.56;;;12.99;92.10
54407;BME280;40313;50.308;30.374;2024-02-21T02:12:06;99740.81;;;12.81;92.44
54407;BME280;40313;50.308;30.374;2024-02-21T02:14:32;99744.50;;;12.91;92.10
54407;BME280;40313;50.308;30.374;2024-02-21T02:16:59;99738.91;;;12.98;92.24
54407;BME280;40313;50.308;30.374;2024-02-21T02:19:25;99749.38;;;12.98;91.94
54407;BME280;40313;50.308;30.374;2024-02-21T02:21:57;99741.69;;;12.94;91.45
54407;BME280;40313;50.308;30.374;2024-02-21T02:24:27;99735.00;;;12.90;92.40
54407;BME280;40313;50.308;30.374;2024-02-21T02:26:54;99732.81;;;12.97;92.16
54407;BME280;40313;50.308;30.374;2024-02-21T02:29:20;99742.09;;;12.88;93.54
54407;BME280;40313;50.308;30.374;2024-02-21T02:31:48;99741.53;;;12.98;92.22
54407;BME280;40313;50.308;30.374;2024-02-21T02:34:15;99737.25;;;13.09;92.32
54407;BME280;40313;50.308;30.374;2024-02-21T02:36:41;99748.06;;;13.18;91.52
54407;BME280;40313;50.308;30.374;2024-02-21T02:39:08;99751.88;;;13.26;91.86
54407;BME280;40313;50.308;30.374;2024-02-21T02:41:36;99744.38;;;13.35;91.29
54407;BME280;40313;50.308;30.374;2024-02-21T02:44:03;99750.91;;;13.42;91.11
54407;BME280;40313;50.308;30.374;2024-02-21T02:46:29;99754.97;;;13.46;90.79
54407;BME280;40313;50.308;30.374;2024-02-21T02:48:56;99754.28;;;13.29;90.13
54407;BME280;40313;50.308;30.374;2024-02-21T02:51:22;99757.81;;;13.16;91.54
54407;BME280;40313;50.308;30.374;2024-02-21T02:53:49;99762.41;;;13.12;92.28
54407;BME280;40313;50.308;30.374;2024-02-21T02:56:15;99764.16;;;13.11;91.99
54407;BME280;40313;50.308;30.374;2024-02-21T02:58:43;99757.41;;;13.22;92.17
54407;BME280;40313;50.308;30.374;2024-02-21T03:01:10;99759.91;;;13.10;92.69
54407;BME280;40313;50.308;30.374;2024-02-21T03:03:36;99768.47;;;13.12;92.33
54407;BME280;40313;50.308;30.374;2024-02-21T03:06:03;99762.50;;;13.10;93.30
54407;BME280;40313;50.308;30.374;2024-02-21T03:08:30;99760.66;;;13.25;92.79
54407;BME280;40313;50.308;30.374;2024-02-21T03:10:57;99763.34;;;13.11;93.26
54407;BME280;40313;50.308;30.374;2024-02-21T03:13:24;99770.50;;;13.22;93.30
54407;BME280;40313;50.308;30.374;2024-02-21T03:15:52;99762.03;;;13.31;92.82
54407;BME280;40313;50.308;30.374;2024-02-21T03:18:18;99765.13;;;13.38;92.24
54407;BME280;40313;50.308;30.374;2024-02-21T03:20:45;99772.72;;;13.55;91.99
54407;BME280;40313;50.308;30.374;2024-02-21T03:23:12;99772.03;;;13.39;91.92
54407;BME280;40313;50.308;30.374;2024-02-21T03:25:38;99770.09;;;13.28;92.19
54407;BME280;40313;50.308;30.374;2024-02-21T03:28:05;99776.91;;;13.18;91.82
54407;BME280;40313;50.308;30.374;2024-02-21T03:30:31;99769.16;;;13.29;92.60
54407;BME280;40313;50.308;30.374;2024-02-21T03:33:00;99773.00;;;13.38;92.87
54407;BME280;40313;50.308;30.374;2024-02-21T03:35:27;99775.03;;;13.32;92.41
54407;BME280;40313;50.308;30.374;2024-02-21T03:37:53;99770.47;;;13.09;93.21
54407;BME280;40313;50.308;30.374;2024-02-21T03:40:20;99773.94;;;13.37;93.33
54407;BME280;40313;50.308;30.374;2024-02-21T03:42:47;99777.31;;;13.52;92.67
54407;BME280;40313;50.308;30.374;2024-02-21T03:45:13;99780.19;;;13.74;91.69
54407;BME280;40313;50.308;30.374;2024-02-21T03:47:40;99775.69;;;13.76;91.82
54407;BME280;40313;50.308;30.374;2024-02-21T03:50:08;99779.03;;;13.78;91.42
54407;BME280;40313;50.308;30.374;2024-02-21T03:52:35;99774.41;;;13.56;92.04
54407;BME280;40313;50.308;30.374;2024-02-21T03:55:02;99778.69;;;13.57;92.09
54407;BME280;40313;50.308;30.374;2024-02-21T03:57:28;99777.31;;;13.64;92.04
54407;BME280;40313;50.308;30.374;2024-02-21T03:59:55;99778.88;;;13.54;91.50
54407;BME280;40313;50.308;30.374;2024-02-21T04:02:21;99778.38;;;13.49;92.61
54407;BME280;40313;50.308;30.374;2024-02-21T04:04:48;99782.47;;;13.53;92.40
54407;BME280;40313;50.308;30.374;2024-02-21T04:07:16;99782.56;;;13.64;92.50
54407;BME280;40313;50.308;30.374;2024-02-21T04:09:42;99773.44;;;13.57;91.88
54407;BME280;40313;50.308;30.374;2024-02-21T04:12:09;99777.22;;;13.53;92.16
54407;BME280;40313;50.308;30.374;2024-02-21T04:14:35;99781.47;;;13.41;91.90
54407;BME280;40313;50.308;30.374;2024-02-21T04:17:02;99786.50;;;13.44;92.21
54407;BME280;40313;50.308;30.374;2024-02-21T04:19:30;99788.97;;;13.47;92.05
54407;BME280;40313;50.308;30.374;2024-02-21T04:21:57;99787.88;;;13.50;92.74
54407;BME280;40313;50.308;30.374;2024-02-21T04:24:25;99791.81;;;13.70;92.14
54407;BME280;40313;50.308;30.374;2024-02-21T04:26:51;99791.22;;;13.79;91.79
54407;BME280;40313;50.308;30.374;2024-02-21T04:29:18;99796.34;;;13.94;91.68
54407;BME280;40313;50.308;30.374;2024-02-21T04:31:44;99794.53;;;13.69;91.66
54407;BME280;40313;50.308;30.374;2024-02-21T04:34:11;99799.16;;;13.65;91.86
54407;BME280;40313;50.308;30.374;2024-02-21T04:36:37;99793.16;;;13.63;91.97
54407;BME280;40313;50.308;30.374;2024-02-21T04:39:04;99798.25;;;13.79;91.87
54407;BME280;40313;50.308;30.374;2024-02-21T04:41:31;99795.81;;;13.76;91.40
54407;BME280;40313;50.308;30.374;2024-02-21T04:43:58;99793.59;;;13.70;91.07
54407;BME280;40313;50.308;30.374;2024-02-21T04:46:25;99799.38;;;13.75;91.46
54407;BME280;40313;50.308;30.374;2024-02-21T04:48:51;99802.28;;;13.70;91.87
54407;BME280;40313;50.308;30.374;2024-02-21T04:51:18;99799.78;;;13.69;92.04
54407;BME280;40313;50.308;30.374;2024-02-21T04:53:44;99805.00;;;13.69;91.85
54407;BME280;40313;50.308;30.374;2024-02-21T04:56:11;99803.78;;;13.87;91.97
54407;BME280;40313;50.308;30.374;2024-02-21T04:58:39;99809.03;;;13.87;91.39
54407;BME280;40313;50.308;30.374;2024-02-21T05:01:06;99808.81;;;14.03;90.28
54407;BME280;40313;50.308;30.374;2024-02-21T05:03:33;99806.75;;;14.08;90.48
54407;BME280;40313;50.308;30.374;2024-02-21T05:05:59;99808.09;;;14.01;90.03
54407;BME280;40313;50.308;30.374;2024-02-21T05:08:26;99813.22;;;13.77;90.44
54407;BME280;40313;50.308;30.374;2024-02-21T05:10:53;99816.59;;;13.79;91.20
54407;BME280;40313;50.308;30.374;2024-02-21T05:13:19;99810.28;;;13.94;91.40
54407;BME280;40313;50.308;30.374;2024-02-21T05:15:47;99816.91;;;13.87;91.36
54407;BME280;40313;50.308;30.374;2024-02-21T05:18:14;99825.31;;;13.92;91.37
54407;BME280;40313;50.308;30.374;2024-02-21T05:20:41;99816.19;;;13.98;91.55
54407;BME280;40313;50.308;30.374;2024-02-21T05:23:07;99821.75;;;13.93;92.18
54407;BME280;40313;50.308;30.374;2024-02-21T05:25:34;99809.03;;;14.00;92.04
54407;BME280;40313;50.308;30.374;2024-02-21T05:28:00;99824.16;;;14.09;90.41
54407;BME280;40313;50.308;30.374;2024-02-21T05:30:28;99817.03;;;14.24;90.72
54407;BME280;40313;50.308;30.374;2024-02-21T05:32:56;99822.91;;;14.02;90.92
54407;BME280;40313;50.308;30.374;2024-02-21T05:35:25;99820.53;;;13.72;92.36
54407;BME280;40313;50.308;30.374;2024-02-21T05:37:52;99821.72;;;13.68;92.89
54407;BME280;40313;50.308;30.374;2024-02-21T05:40:19;99821.13;;;14.15;92.33
54407;BME280;40313;50.308;30.374;2024-02-21T05:42:45;99822.09;;;13.61;92.31
54407;BME280;40313;50.308;30.374;2024-02-21T05:45:12;99832.03;;;14.22;92.87
54407;BME280;40313;50.308;30.374;2024-02-21T05:47:38;99822.69;;;14.18;93.26
54407;BME280;40313;50.308;30.374;2024-02-21T05:50:06;99830.56;;;14.05;93.03
54407;BME280;40313;50.308;30.374;2024-02-21T05:52:34;99837.63;;;14.17;93.08
54407;BME280;40313;50.308;30.374;2024-02-21T05:55:00;99823.63;;;14.17;93.26
54407;BME280;40313;50.308;30.374;2024-02-21T05:57:27;99827.72;;;14.34;93.50
54407;BME280;40313;50.308;30.374;2024-02-21T05:59:53;99828.16;;;14.41;93.34
54407;BME280;40313;50.308;30.374;2024-02-21T06:02:20;99829.41;;;14.48;93.20
54407;BME280;40313;50.308;30.374;2024-02-21T06:04:46;99834.63;;;14.61;92.53
54407;BME280;40313;50.308;30.374;2024-02-21T06:07:14;99835.91;;;14.68;91.85
54407;BME280;40313;50.308;30.374;2024-02-21T06:09:41;99829.34;;;14.86;90.68
54407;BME280;40313;50.308;30.374;2024-02-21T06:12:07;99829.13;;;14.90;91.75
54407;BME280;40313;50.308;30.374;2024-02-21T06:14:34;99838.47;;;14.94;90.91
54407;BME280;40313;50.308;30.374;2024-02-21T06:17:00;99839.22;;;14.83;90.77
54407;BME280;40313;50.308;30.374;2024-02-21T06:19:27;99846.47;;;14.92;91.14
54407;BME280;40313;50.308;30.374;2024-02-21T06:21:54;99853.19;;;14.96;91.69
54407;BME280;40313;50.308;30.374;2024-02-21T06:24:22;99850.41;;;15.11;91.94
54407;BME280;40313;50.308;30.374;2024-02-21T06:26:47;99843.53;;;15.21;91.74
54407;BME280;40313;50.308;30.374;2024-02-21T06:29:14;99844.31;;;15.34;91.10
54407;BME280;40313;50.308;30.374;2024-02-21T06:31:40;99843.88;;;15.41;90.51
54407;BME280;40313;50.308;30.374;2024-02-21T06:34:07;99848.56;;;15.48;90.75
54407;BME280;40313;50.308;30.374;2024-02-21T06:36:33;99846.56;;;15.52;90.48
54407;BME280;40313;50.308;30.374;2024-02-21T06:39:00;99847.97;;;15.45;91.16
54407;BME280;40313;50.308;30.374;2024-02-21T06:41:27;99842.97;;;15.53;91.61
54407;BME280;40313;50.308;30.374;2024-02-21T06:43:55;99847.81;;;15.70;91.55
54407;BME280;40313;50.308;30.374;2024-02-21T06:46:23;99856.94;;;15.78;90.30
54407;BME280;40313;50.308;30.374;2024-02-21T06:48:50;99847.38;;;16.12;89.27
54407;BME280;40313;50.308;30.374;2024-02-21T06:51:17;99849.41;;;16.31;90.16
54407;BME280;40313;50.308;30.374;2024-02-21T06:53:43;99852.19;;;16.52;88.17
54407;BME280;40313;50.308;30.374;2024-02-21T06:56:10;99853.63;;;16.56;89.20
54407;BME280;40313;50.308;30.374;2024-02-21T06:58:38;99855.88;;;16.27;88.97
54407;BME280;40313;50.308;30.374;2024-02-21T07:01:04;99856.84;;;16.49;89.37
54407;BME280;40313;50.308;30.374;2024-02-21T07:03:31;99870.22;;;16.34;89.03
54407;BME280;40313;50.308;30.374;2024-02-21T07:05:57;99869.13;;;16.14;88.69
54407;BME280;40313;50.308;30.374;2024-02-21T07:08:24;99867.34;;;16.15;88.04
54407;BME280;40313;50.308;30.374;2024-02-21T07:10:50;99861.59;;;16.10;87.83
54407;BME280;40313;50.308;30.374;2024-02-21T07:13:17;99866.47;;;16.03;88.28
54407;BME280;40313;50.308;30.374;2024-02-21T07:15:45;99863.38;;;15.98;88.89
54407;BME280;40313;50.308;30.374;2024-02-21T07:18:11;99867.31;;;16.03;87.53
54407;BME280;40313;50.308;30.374;2024-02-21T07:20:38;99869.75;;;16.18;88.01
54407;BME280;40313;50.308;30.374;2024-02-21T07:23:06;99872.63;;;16.15;86.10
54407;BME280;40313;50.308;30.374;2024-02-21T07:25:33;99876.19;;;16.14;86.11
54407;BME280;40313;50.308;30.374;2024-02-21T07:27:59;99875.53;;;15.99;86.37
54407;BME280;40313;50.308;30.374;2024-02-21T07:30:26;99877.38;;;16.10;85.61
54407;BME280;40313;50.308;30.374;2024-02-21T07:32:54;99881.63;;;15.88;86.09
54407;BME280;40313;50.308;30.374;2024-02-21T07:35:20;99882.03;;;15.70;86.64
54407;BME280;40313;50.308;30.374;2024-02-21T07:37:47;99879.38;;;15.70;87.62
54407;BME280;40313;50.308;30.374;2024-02-21T07:40:14;99884.19;;;15.77;86.98
54407;BME280;40313;50.308;30.374;2024-02-21T07:42:41;99889.88;;;15.83;86.80
54407;BME280;40313;50.308;30.374;2024-02-21T07:45:08;99882.69;;;15.85;86.68
54407;BME280;40313;50.308;30.374;2024-02-21T07:47:35;99891.97;;;16.02;86.60
54407;BME280;40313;50.308;30.374;2024-02-21T07:50:04;99889.69;;;15.98;86.41
54407;BME280;40313;50.308;30.374;2024-02-21T07:52:31;99893.56;;;16.39;85.86
54407;BME280;40313;50.308;30.374;2024-02-21T07:54:57;99896.81;;;16.42;85.25
54407;BME280;40313;50.308;30.374;2024-02-21T07:57:24;99892.53;;;16.53;84.85
54407;BME280;40313;50.308;30.374;2024-02-21T07:59:51;99883.66;;;16.54;85.23
54407;BME280;40313;50.308;30.374;2024-02-21T08:02:17;99887.97;;;16.44;84.53
54407;BME280;40313;50.308;30.374;2024-02-21T08:04:44;99893.00;;;16.47;84.69
54407;BME280;40313;50.308;30.374;2024-02-21T08:07:12;99889.72;;;16.32;83.93
54407;BME280;40313;50.308;30.374;2024-02-21T08:09:39;99886.44;;;16.52;84.49
54407;BME280;40313;50.308;30.374;2024-02-21T08:12:06;99888.00;;;16.66;83.33
54407;BME280;40313;50.308;30.374;2024-02-21T08:14:33;99895.81;;;16.90;83.74
54407;BME280;40313;50.308;30.374;2024-02-21T08:16:59;99891.59;;;16.99;84.26
54407;BME280;40313;50.308;30.374;2024-02-21T08:19:26;99887.28;;;16.98;83.39
54407;BME280;40313;50.308;30.374;2024-02-21T08:21:52;99887.03;;;17.01;83.36
54407;BME280;40313;50.308;30.374;2024-02-21T08:24:20;99886.44;;;17.09;82.97
54407;BME280;40313;50.308;30.374;2024-02-21T08:26:48;99887.00;;;17.24;82.65
54407;BME280;40313;50.308;30.374;2024-02-21T08:29:14;99885.09;;;17.15;82.75
54407;BME280;40313;50.308;30.374;2024-02-21T08:31:41;99884.25;;;17.14;83.26
54407;BME280;40313;50.308;30.374;2024-02-21T08:34:07;99888.25;;;17.52;83.45
54407;BME280;40313;50.308;30.374;2024-02-21T08:36:34;99889.31;;;17.50;83.13
54407;BME280;40313;50.308;30.374;2024-02-21T08:39:02;99881.53;;;17.48;82.04
54407;BME280;40313;50.308;30.374;2024-02-21T08:41:32;99883.25;;;17.70;81.86
54407;BME280;40313;50.308;30.374;2024-02-21T08:43:58;99888.19;;;18.17;83.16
54407;BME280;40313;50.308;30.374;2024-02-21T08:46:25;99878.94;;;18.23;81.92
54407;BME280;40313;50.308;30.374;2024-02-21T08:48:52;99884.25;;;18.54;81.51
54407;BME280;40313;50.308;30.374;2024-02-21T08:51:19;99882.72;;;18.30;80.89
54407;BME280;40313;50.308;30.374;2024-02-21T08:53:46;99873.97;;;18.60;80.75
54407;BME280;40313;50.308;30.374;2024-02-21T08:56:13;99880.72;;;18.74;79.84
54407;BME280;40313;50.308;30.374;2024-02-21T08:58:40;99882.41;;;19.06;80.14
54407;BME280;40313;50.308;30.374;2024-02-21T09:01:07;99881.13;;;19.01;79.34
54407;BME280;40313;50.308;30.374;2024-02-21T09:03:35;99888.47;;;18.66;78.64
54407;BME280;40313;50.308;30.374;2024-02-21T09:06:03;99887.63;;;18.65;79.53
54407;BME280;40313;50.308;30.374;2024-02-21T09:08:30;99883.00;;;18.89;77.21
54407;BME280;40313;50.308;30.374;2024-02-21T09:10:56;99887.44;;;19.29;78.38
54407;BME280;40313;50.308;30.374;2024-02-21T09:13:23;99879.25;;;19.71;77.34
54407;BME280;40313;50.308;30.374;2024-02-21T09:15:51;99887.19;;;19.61;75.60
54407;BME280;40313;50.308;30.374;2024-02-21T09:18:17;99890.66;;;18.92;75.67
54407;BME280;40313;50.308;30.374;2024-02-21T09:20:45;99890.94;;;19.29;76.07
54407;BME280;40313;50.308;30.374;2024-02-21T09:23:13;99888.81;;;18.82;76.13
54407;BME280;40313;50.308;30.374;2024-02-21T09:25:39;99893.22;;;18.93;75.35
54407;BME280;40313;50.308;30.374;2024-02-21T09:28:06;99890.03;;;18.99;76.44
54407;BME280;40313;50.308;30.374;2024-02-21T09:30:33;99882.06;;;18.90;76.87
54407;BME280;40313;50.308;30.374;2024-02-21T09:33:00;99884.66;;;18.28;75.31
54407;BME280;40313;50.308;30.374;2024-02-21T09:35:27;99884.34;;;18.83;74.74
54407;BME280;40313;50.308;30.374;2024-02-21T09:37:54;99886.97;;;18.42;76.48
54407;BME280;40313;50.308;30.374;2024-02-21T09:40:21;99881.88;;;18.51;75.30
54407;BME280;40313;50.308;30.374;2024-02-21T09:42:48;99880.94;;;18.61;76.57
54407;BME280;40313;50.308;30.374;2024-02-21T09:45:19;99880.22;;;18.28;77.09
54407;BME280;40313;50.308;30.374;2024-02-21T09:47:53;99877.09;;;18.44;76.30
54407;BME280;40313;50.308;30.374;2024-02-21T09:50:24;99876.78;;;18.69;76.27
54407;BME280;40313;50.308;30.374;2024-02-21T09:52:51;99877.78;;;18.77;75.69
54407;BME280;40313;50.308;30.374;2024-02-21T09:55:19;99873.66;;;18.85;75.70
54407;BME280;40313;50.308;30.374;2024-02-21T09:57:45;99877.22;;;18.95;75.33
54407;BME280;40313;50.308;30.374;2024-02-21T10:00:13;99873.00;;;18.30;74.61
54407;BME280;40313;50.308;30.374;2024-02-21T10:02:47;99869.50;;;17.88;75.78
54407;BME280;40313;50.308;30.374;2024-02-21T10:05:13;99874.19;;;18.17;76.48
54407;BME280;40313;50.308;30.374;2024-02-21T10:07:41;99866.75;;;18.62;76.00
54407;BME280;40313;50.308;30.374;2024-02-21T10:10:08;99866.19;;;18.59;76.19
54407;BME280;40313;50.308;30.374;2024-02-21T10:12:35;99864.81;;;18.64;76.28
54407;BME280;40313;50.308;30.374;2024-02-21T10:15:02;99868.72;;;18.70;75.44
54407;BME280;40313;50.308;30.374;2024-02-21T10:17:29;99867.19;;;18.37;76.88
54407;BME280;40313;50.308;30.374;2024-02-21T10:19:55;99874.47;;;17.81;76.76
54407;BME280;40313;50.308;30.374;2024-02-21T10:22:22;99869.66;;;17.86;77.68
54407;BME280;40313;50.308;30.374;2024-02-21T10:24:52;99859.97;;;17.75;76.43
54407;BME280;40313;50.308;30.374;2024-02-21T10:27:23;99860.72;;;18.20;76.59
54407;BME280;40313;50.308;30.374;2024-02-21T10:29:50;99865.34;;;17.53;76.22
54407;BME280;40313;50.308;30.374;2024-02-21T10:32:17;99868.91;;;17.95;77.04
54407;BME280;40313;50.308;30.374;2024-02-21T10:34:43;99863.78;;;17.83;76.01
54407;BME280;40313;50.308;30.374;2024-02-21T10:37:11;99861.69;;;17.65;76.00
54407;BME280;40313;50.308;30.374;2024-02-21T10:39:39;99858.41;;;18.26;75.07
54407;BME280;40313;50.308;30.374;2024-02-21T10:42:10;99861.41;;;18.22;75.42
54407;BME280;40313;50.308;30.374;2024-02-21T10:44:38;99862.00;;;18.04;75.26
54407;BME280;40313;50.308;30.374;2024-02-21T10:47:08;99862.59;;;18.39;74.21
54407;BME280;40313;50.308;30.374;2024-02-21T10:49:38;99860.63;;;17.68;75.83
54407;BME280;40313;50.308;30.374;2024-02-21T10:52:08;99860.38;;;18.13;75.86
54407;BME280;40313;50.308;30.374;2024-02-21T10:54:44;99860.97;;;18.47;74.52
54407;BME280;40313;50.308;30.374;2024-02-21T10:57:14;99853.94;;;18.27;74.57
54407;BME280;40313;50.308;30.374;2024-02-21T10:59:40;99842.63;;;17.94;74.83
54407;BME280;40313;50.308;30.374;2024-02-21T11:02:07;99848.59;;;17.96;73.84
54407;BME280;40313;50.308;30.374;2024-02-21T11:04:34;99847.41;;;17.89;74.36
54407;BME280;40313;50.308;30.374;2024-02-21T11:07:03;99857.94;;;18.00;73.73
54407;BME280;40313;50.308;30.374;2024-02-21T11:09:30;99852.50;;;17.16;74.87
54407;BME280;40313;50.308;30.374;2024-02-21T11:11:58;99845.44;;;17.16;76.33
54407;BME280;40313;50.308;30.374;2024-02-21T11:14:27;99856.34;;;17.55;76.06
54407;BME280;40313;50.308;30.374;2024-02-21T11:16:57;99841.41;;;17.98;75.35
54407;BME280;40313;50.308;30.374;2024-02-21T11:19:25;99846.69;;;17.98;75.21
54407;BME280;40313;50.308;30.374;2024-02-21T11:21:53;99849.19;;;18.00;75.30
54407;BME280;40313;50.308;30.374;2024-02-21T11:24:26;99848.28;;;17.89;75.88
54407;BME280;40313;50.308;30.374;2024-02-21T11:26:54;99845.13;;;18.17;75.48
54407;BME280;40313;50.308;30.374;2024-02-21T11:29:23;99851.09;;;17.76;75.72
54407;BME280;40313;50.308;30.374;2024-02-21T11:31:52;99848.75;;;18.46;75.41
54407;BME280;40313;50.308;30.374;2024-02-21T11:34:19;99841.28;;;18.21;74.69
54407;BME280;40313;50.308;30.374;2024-02-21T11:36:47;99848.72;;;18.77;74.50
54407;BME280;40313;50.308;30.374;2024-02-21T11:39:18;99836.50;;;18.14;75.21
54407;BME280;40313;50.308;30.374;2024-02-21T11:41:46;99836.75;;;18.63;73.01
54407;BME280;40313;50.308;30.374;2024-02-21T11:44:12;99836.75;;;18.73;71.48
54407;BME280;40313;50.308;30.374;2024-02-21T11:46:39;99829.50;;;18.65;71.60
54407;BME280;40313;50.308;30.374;2024-02-21T11:49:07;99829.94;;;18.71;69.75
54407;BME280;40313;50.308;30.374;2024-02-21T11:51:34;99828.41;;;19.19;70.80
54407;BME280;40313;50.308;30.374;2024-02-21T11:54:00;99830.78;;;19.41;70.35
54407;BME280;40313;50.308;30.374;2024-02-21T11:56:27;99835.06;;;18.93;69.63
54407;BME280;40313;50.308;30.374;2024-02-21T11:58:54;99830.63;;;19.23;70.00
54407;BME280;40313;50.308;30.374;2024-02-21T12:01:20;99835.38;;;18.69;69.08
54407;BME280;40313;50.308;30.374;2024-02-21T12:03:48;99833.53;;;19.10;69.78
54407;BME280;40313;50.308;30.374;2024-02-21T12:06:17;99830.09;;;18.69;69.12
54407;BME280;40313;50.308;30.374;2024-02-21T12:08:46;99836.50;;;18.14;68.99
54407;BME280;40313;50.308;30.374;2024-02-21T12:11:20;99835.03;;;18.01;69.16
54407;BME280;40313;50.308;30.374;2024-02-21T12:13:47;99833.81;;;17.51;69.70
54407;BME280;40313;50.308;30.374;2024-02-21T12:16:15;99836.00;;;17.67;70.75
54407;BME280;40313;50.308;30.374;2024-02-21T12:18:43;99835.69;;;17.82;70.25
54407;BME280;40313;50.308;30.374;2024-02-21T12:21:09;99836.75;;;17.69;69.67
54407;BME280;40313;50.308;30.374;2024-02-21T12:23:39;99830.53;;;17.59;69.78
54407;BME280;40313;50.308;30.374;2024-02-21T12:26:06;99833.84;;;17.72;69.96
54407;BME280;40313;50.308;30.374;2024-02-21T12:28:33;99835.06;;;17.68;69.24
54407;BME280;40313;50.308;30.374;2024-02-21T12:30:59;99837.03;;;18.08;69.28
54407;BME280;40313;50.308;30.374;2024-02-21T12:33:26;99833.69;;;18.06;68.66
54407;BME280;40313;50.308;30.374;2024-02-21T12:35:52;99835.28;;;17.98;69.13
54407;BME280;40313;50.308;30.374;2024-02-21T12:38:20;99834.50;;;17.32;69.89
54407;BME280;40313;50.308;30.374;2024-02-21T12:40:48;99835.91;;;17.36;70.58
54407;BME280;40313;50.308;30.374;2024-02-21T12:43:14;99828.41;;;17.53;69.98
54407;BME280;40313;50.308;30.374;2024-02-21T12:45:41;99827.53;;;17.64;69.55
54407;BME280;40313;50.308;30.374;2024-02-21T12:48:07;99827.69;;;18.04;69.33
54407;BME280;40313;50.308;30.374;2024-02-21T12:50:34;99833.03;;;17.93;69.26